sensor_id;sensor_type;location;lat;lon;timestamp;P1;durP1;ratioP1;P2;durP2;ratioP2
40533;SDS011;26233;51.894;10.192;2022-12-18T00:01:19;1.77;;;1.40;;
40533;SDS011;26233;51.894;10.192;2022-12-18T00:03:49;1.50;;;1.30;;
40533;SDS011;26233;51.894;10.192;2022-12-18T00:06:17;1.60;;;1.50;;
40533;SDS011;26233;51.894;10.192;2022-12-18T00:08:44;2.57;;;1.80;;
40533;SDS011;26233;51.894;10.192;2022-12-18T00:11:16;3.07;;;1.70;;
40533;SDS011;26233;51.894;10.192;2022-12-18T00:13:46;2.53;;;1.53;;
40533;SDS011;26233;51.894;10.192;2022-12-18T00:16:14;1.60;;;1.50;;
40533;SDS011;26233;51.894;10.192;2022-12-18T00:18:46;1.50;;;1.40;;
40533;SDS011;26233;51.894;10.192;2022-12-18T00:21:14;1.87;;;1.37;;
40533;SDS011;26233;51.894;10.192;2022-12-18T00:23:42;1.47;;;1.20;;
40533;SDS011;26233;51.894;10.192;2022-12-18T00:26:11;1.93;;;1.40;;
40533;SDS011;26233;51.894;10.192;2022-12-18T00:28:43;2.33;;;1.60;;
40533;SDS011;26233;51.894;10.192;2022-12-18T00:31:12;1.73;;;1.57;;
40533;SDS011;26233;51.894;10.192;2022-12-18T00:33:44;1.53;;;1.33;;
40533;SDS011;26233;51.894;10.192;2022-12-18T00:36:13;1.60;;;1.50;;
40533;SDS011;26233;51.894;10.192;2022-12-18T00:38:43;2.03;;;1.40;;
40533;SDS011;26233;51.894;10.192;2022-12-18T00:41:11;1.57;;;1.40;;
40533;SDS011;26233;51.894;10.192;2022-12-18T00:44:00;1.40;;;1.30;;
40533;SDS011;26233;51.894;10.192;2022-12-18T00:46:26;1.77;;;1.30;;
40533;SDS011;26233;51.894;10.192;2022-12-18T00:48:53;1.77;;;1.67;;
40533;SDS011;26233;51.894;10.192;2022-12-18T00:51:22;2.07;;;1.37;;
40533;SDS011;26233;51.894;10.192;2022-12-18T00:53:49;1.90;;;1.37;;
40533;SDS011;26233;51.894;10.192;2022-12-18T00:56:16;1.67;;;1.53;;
40533;SDS011;26233;51.894;10.192;2022-12-18T00:58:43;2.23;;;1.40;;
40533;SDS011;26233;51.894;10.192;2022-12-18T01:01:10;1.60;;;1.50;;
40533;SDS011;26233;51.894;10.192;2022-12-18T01:03:37;1.53;;;1.40;;
40533;SDS011;26233;51.894;10.192;2022-12-18T01:06:05;1.33;;;1.20;;
40533;SDS011;26233;51.894;10.192;2022-12-18T01:08:35;1.40;;;1.30;;
40533;SDS011;26233;51.894;10.192;2022-12-18T01:11:06;2.10;;;1.27;;
40533;SDS011;26233;51.894;10.192;2022-12-18T01:13:35;1.53;;;1.20;;
40533;SDS011;26233;51.894;10.192;2022-12-18T01:16:03;2.13;;;1.40;;
40533;SDS011;26233;51.894;10.192;2022-12-18T01:18:30;2.37;;;1.57;;
40533;SDS011;26233;51.894;10.192;2022-12-18T01:20:57;1.57;;;1.47;;
40533;SDS011;26233;51.894;10.192;2022-12-18T01:23:32;2.83;;;2.53;;
40533;SDS011;26233;51.894;10.192;2022-12-18T01:26:03;2.47;;;2.17;;
40533;SDS011;26233;51.894;10.192;2022-12-18T01:28:32;2.47;;;2.27;;
40533;SDS011;26233;51.894;10.192;2022-12-18T01:31:08;2.47;;;2.27;;
40533;SDS011;26233;51.894;10.192;2022-12-18T01:33:37;2.10;;;1.90;;
40533;SDS011;26233;51.894;10.192;2022-12-18T01:36:05;2.07;;;1.87;;
40533;SDS011;26233;51.894;10.192;2022-12-18T01:38:35;1.97;;;1.73;;
40533;SDS011;26233;51.894;10.192;2022-12-18T01:41:02;1.90;;;1.70;;
40533;SDS011;26233;51.894;10.192;2022-12-18T01:43:42;2.03;;;1.87;;
40533;SDS011;26233;51.894;10.192;2022-12-18T01:46:15;2.10;;;1.90;;
40533;SDS011;26233;51.894;10.192;2022-12-18T01:48:44;2.87;;;1.90;;
40533;SDS011;26233;51.894;10.192;2022-12-18T01:51:16;1.67;;;1.57;;
40533;SDS011;26233;51.894;10.192;2022-12-18T01:53:45;1.50;;;1.30;;
40533;SDS011;26233;51.894;10.192;2022-12-18T01:56:16;1.60;;;1.40;;
40533;SDS011;26233;51.894;10.192;2022-12-18T01:58:49;1.73;;;1.30;;
40533;SDS011;26233;51.894;10.192;2022-12-18T02:01:23;1.80;;;1.40;;
40533;SDS011;26233;51.894;10.192;2022-12-18T02:03:51;2.37;;;1.30;;
40533;SDS011;26233;51.894;10.192;2022-12-18T02:06:19;1.13;;;1.03;;
40533;SDS011;26233;51.894;10.192;2022-12-18T02:09:00;2.00;;;1.10;;
40533;SDS011;26233;51.894;10.192;2022-12-18T02:11:39;0.90;;;0.90;;
40533;SDS011;26233;51.894;10.192;2022-12-18T02:14:17;1.40;;;1.30;;
40533;SDS011;26233;51.894;10.192;2022-12-18T02:16:51;1.40;;;1.30;;
40533;SDS011;26233;51.894;10.192;2022-12-18T02:19:42;2.43;;;1.20;;
40533;SDS011;26233;51.894;10.192;2022-12-18T02:22:24;1.30;;;1.20;;
40533;SDS011;26233;51.894;10.192;2022-12-18T02:25:02;1.63;;;1.20;;
40533;SDS011;26233;51.894;10.192;2022-12-18T02:27:43;1.30;;;1.20;;
40533;SDS011;26233;51.894;10.192;2022-12-18T02:30:13;1.50;;;1.20;;
40533;SDS011;26233;51.894;10.192;2022-12-18T02:32:42;1.97;;;1.27;;
40533;SDS011;26233;51.894;10.192;2022-12-18T02:35:13;3.47;;;1.87;;
40533;SDS011;26233;51.894;10.192;2022-12-18T02:37:47;1.67;;;1.57;;
40533;SDS011;26233;51.894;10.192;2022-12-18T02:40:15;2.07;;;1.83;;
40533;SDS011;26233;51.894;10.192;2022-12-18T02:42:45;1.80;;;1.70;;
40533;SDS011;26233;51.894;10.192;2022-12-18T02:45:12;2.17;;;1.80;;
40533;SDS011;26233;51.894;10.192;2022-12-18T02:47:40;2.20;;;2.00;;
40533;SDS011;26233;51.894;10.192;2022-12-18T02:50:13;2.07;;;1.80;;
40533;SDS011;26233;51.894;10.192;2022-12-18T02:52:52;2.20;;;1.70;;
40533;SDS011;26233;51.894;10.192;2022-12-18T02:55:32;2.20;;;1.80;;
40533;SDS011;26233;51.894;10.192;2022-12-18T02:58:14;2.17;;;1.97;;
40533;SDS011;26233;51.894;10.192;2022-12-18T03:00:48;1.70;;;1.60;;
40533;SDS011;26233;51.894;10.192;2022-12-18T03:03:24;2.07;;;1.80;;
40533;SDS011;26233;51.894;10.192;2022-12-18T03:05:56;1.70;;;1.60;;
40533;SDS011;26233;51.894;10.192;2022-12-18T03:08:29;1.73;;;1.53;;
40533;SDS011;26233;51.894;10.192;2022-12-18T03:11:02;1.50;;;1.30;;
40533;SDS011;26233;51.894;10.192;2022-12-18T03:13:33;1.90;;;1.40;;
40533;SDS011;26233;51.894;10.192;2022-12-18T03:16:05;1.60;;;1.50;;
40533;SDS011;26233;51.894;10.192;2022-12-18T03:18:36;1.50;;;1.40;;
40533;SDS011;26233;51.894;10.192;2022-12-18T03:21:09;1.50;;;1.30;;
40533;SDS011;26233;51.894;10.192;2022-12-18T03:23:39;1.30;;;1.20;;
40533;SDS011;26233;51.894;10.192;2022-12-18T03:26:11;2.00;;;1.30;;
40533;SDS011;26233;51.894;10.192;2022-12-18T03:28:45;1.40;;;1.30;;
40533;SDS011;26233;51.894;10.192;2022-12-18T03:31:16;1.60;;;1.30;;
40533;SDS011;26233;51.894;10.192;2022-12-18T03:33:47;2.10;;;1.37;;
40533;SDS011;26233;51.894;10.192;2022-12-18T03:36:18;2.47;;;1.40;;
40533;SDS011;26233;51.894;10.192;2022-12-18T03:38:45;1.43;;;1.20;;
40533;SDS011;26233;51.894;10.192;2022-12-18T03:41:15;2.17;;;1.40;;
40533;SDS011;26233;51.894;10.192;2022-12-18T03:43:49;2.40;;;1.40;;
40533;SDS011;26233;51.894;10.192;2022-12-18T03:46:24;1.40;;;1.30;;
40533;SDS011;26233;51.894;10.192;2022-12-18T03:48:58;1.30;;;1.20;;
40533;SDS011;26233;51.894;10.192;2022-12-18T03:51:35;1.63;;;1.30;;
40533;SDS011;26233;51.894;10.192;2022-12-18T03:54:08;1.50;;;1.20;;
40533;SDS011;26233;51.894;10.192;2022-12-18T03:56:38;1.53;;;1.10;;
40533;SDS011;26233;51.894;10.192;2022-12-18T03:59:11;1.20;;;1.13;;
40533;SDS011;26233;51.894;10.192;2022-12-18T04:01:42;1.70;;;1.40;;
40533;SDS011;26233;51.894;10.192;2022-12-18T04:04:12;1.57;;;1.30;;
40533;SDS011;26233;51.894;10.192;2022-12-18T04:06:41;1.80;;;1.40;;
40533;SDS011;26233;51.894;10.192;2022-12-18T04:09:09;1.93;;;1.40;;
40533;SDS011;26233;51.894;10.192;2022-12-18T04:11:37;2.43;;;1.50;;
40533;SDS011;26233;51.894;10.192;2022-12-18T04:14:04;1.50;;;1.40;;
40533;SDS011;26233;51.894;10.192;2022-12-18T04:16:32;1.70;;;1.20;;
40533;SDS011;26233;51.894;10.192;2022-12-18T04:18:59;1.60;;;1.43;;
40533;SDS011;26233;51.894;10.192;2022-12-18T04:21:26;1.27;;;1.17;;
40533;SDS011;26233;51.894;10.192;2022-12-18T04:23:53;1.30;;;1.20;;
40533;SDS011;26233;51.894;10.192;2022-12-18T04:26:20;1.40;;;1.30;;
40533;SDS011;26233;51.894;10.192;2022-12-18T04:28:47;1.77;;;1.20;;
40533;SDS011;26233;51.894;10.192;2022-12-18T04:31:14;1.70;;;1.30;;
40533;SDS011;26233;51.894;10.192;2022-12-18T04:33:44;1.90;;;1.60;;
40533;SDS011;26233;51.894;10.192;2022-12-18T04:36:13;2.87;;;2.60;;
40533;SDS011;26233;51.894;10.192;2022-12-18T04:38:43;2.83;;;2.40;;
40533;SDS011;26233;51.894;10.192;2022-12-18T04:41:10;2.27;;;2.00;;
40533;SDS011;26233;51.894;10.192;2022-12-18T04:43:38;2.20;;;1.90;;
40533;SDS011;26233;51.894;10.192;2022-12-18T04:46:06;1.97;;;1.50;;
40533;SDS011;26233;51.894;10.192;2022-12-18T04:48:35;1.40;;;1.30;;
40533;SDS011;26233;51.894;10.192;2022-12-18T04:51:04;1.90;;;1.40;;
40533;SDS011;26233;51.894;10.192;2022-12-18T04:53:32;1.30;;;1.20;;
40533;SDS011;26233;51.894;10.192;2022-12-18T04:56:04;1.40;;;1.10;;
40533;SDS011;26233;51.894;10.192;2022-12-18T04:58:32;1.37;;;1.10;;
40533;SDS011;26233;51.894;10.192;2022-12-18T05:00:59;1.40;;;1.30;;
40533;SDS011;26233;51.894;10.192;2022-12-18T05:03:27;1.00;;;1.00;;
40533;SDS011;26233;51.894;10.192;2022-12-18T05:05:54;1.47;;;1.10;;
40533;SDS011;26233;51.894;10.192;2022-12-18T05:08:23;1.10;;;1.00;;
40533;SDS011;26233;51.894;10.192;2022-12-18T05:10:57;1.50;;;1.00;;
40533;SDS011;26233;51.894;10.192;2022-12-18T05:13:25;2.10;;;1.10;;
40533;SDS011;26233;51.894;10.192;2022-12-18T05:15:53;1.30;;;1.20;;
40533;SDS011;26233;51.894;10.192;2022-12-18T05:18:27;0.80;;;0.80;;
40533;SDS011;26233;51.894;10.192;2022-12-18T05:20:55;1.17;;;1.07;;
40533;SDS011;26233;51.894;10.192;2022-12-18T05:23:23;0.90;;;0.90;;
40533;SDS011;26233;51.894;10.192;2022-12-18T05:25:51;0.90;;;0.90;;
40533;SDS011;26233;51.894;10.192;2022-12-18T05:28:19;1.63;;;0.90;;
40533;SDS011;26233;51.894;10.192;2022-12-18T05:30:48;1.77;;;0.80;;
40533;SDS011;26233;51.894;10.192;2022-12-18T05:33:15;1.43;;;1.10;;
40533;SDS011;26233;51.894;10.192;2022-12-18T05:35:49;1.33;;;1.00;;
40533;SDS011;26233;51.894;10.192;2022-12-18T05:38:17;1.07;;;0.97;;
40533;SDS011;26233;51.894;10.192;2022-12-18T05:40:46;1.13;;;0.90;;
40533;SDS011;26233;51.894;10.192;2022-12-18T05:43:14;1.93;;;1.07;;
40533;SDS011;26233;51.894;10.192;2022-12-18T05:45:42;0.90;;;0.90;;
40533;SDS011;26233;51.894;10.192;2022-12-18T05:48:09;1.43;;;1.00;;
40533;SDS011;26233;51.894;10.192;2022-12-18T05:50:36;1.07;;;1.00;;
40533;SDS011;26233;51.894;10.192;2022-12-18T05:53:05;1.10;;;1.00;;
40533;SDS011;26233;51.894;10.192;2022-12-18T05:55:32;1.20;;;1.10;;
40533;SDS011;26233;51.894;10.192;2022-12-18T05:58:03;2.27;;;1.20;;
40533;SDS011;26233;51.894;10.192;2022-12-18T06:00:34;1.10;;;1.00;;
40533;SDS011;26233;51.894;10.192;2022-12-18T06:03:04;1.73;;;1.10;;
40533;SDS011;26233;51.894;10.192;2022-12-18T06:05:34;1.20;;;1.10;;
40533;SDS011;26233;51.894;10.192;2022-12-18T06:08:02;1.73;;;1.30;;
40533;SDS011;26233;51.894;10.192;2022-12-18T06:10:29;1.40;;;1.30;;
40533;SDS011;26233;51.894;10.192;2022-12-18T06:12:57;1.10;;;1.00;;
40533;SDS011;26233;51.894;10.192;2022-12-18T06:15:25;1.50;;;1.07;;
40533;SDS011;26233;51.894;10.192;2022-12-18T06:17:52;1.30;;;0.90;;
40533;SDS011;26233;51.894;10.192;2022-12-18T06:20:19;1.40;;;1.07;;
40533;SDS011;26233;51.894;10.192;2022-12-18T06:22:47;1.00;;;1.00;;
40533;SDS011;26233;51.894;10.192;2022-12-18T06:25:14;1.53;;;0.90;;
40533;SDS011;26233;51.894;10.192;2022-12-18T06:27:41;1.53;;;1.20;;
40533;SDS011;26233;51.894;10.192;2022-12-18T06:30:09;1.57;;;1.13;;
40533;SDS011;26233;51.894;10.192;2022-12-18T06:32:39;1.23;;;1.03;;
40533;SDS011;26233;51.894;10.192;2022-12-18T06:35:06;1.37;;;1.10;;
40533;SDS011;26233;51.894;10.192;2022-12-18T06:37:34;1.30;;;1.20;;
40533;SDS011;26233;51.894;10.192;2022-12-18T06:40:01;1.67;;;1.00;;
40533;SDS011;26233;51.894;10.192;2022-12-18T06:42:28;1.00;;;1.00;;
40533;SDS011;26233;51.894;10.192;2022-12-18T06:44:55;2.20;;;1.10;;
40533;SDS011;26233;51.894;10.192;2022-12-18T06:47:22;0.93;;;0.93;;
40533;SDS011;26233;51.894;10.192;2022-12-18T06:49:51;0.90;;;0.90;;
40533;SDS011;26233;51.894;10.192;2022-12-18T06:52:18;1.07;;;0.97;;
40533;SDS011;26233;51.894;10.192;2022-12-18T06:54:45;0.90;;;0.90;;
40533;SDS011;26233;51.894;10.192;2022-12-18T06:57:12;0.90;;;0.90;;
40533;SDS011;26233;51.894;10.192;2022-12-18T06:59:39;1.17;;;0.90;;
40533;SDS011;26233;51.894;10.192;2022-12-18T07:02:06;1.40;;;1.00;;
40533;SDS011;26233;51.894;10.192;2022-12-18T07:04:37;1.10;;;0.93;;
40533;SDS011;26233;51.894;10.192;2022-12-18T07:07:05;1.47;;;1.10;;
40533;SDS011;26233;51.894;10.192;2022-12-18T07:09:32;1.30;;;1.20;;
40533;SDS011;26233;51.894;10.192;2022-12-18T07:11:59;1.73;;;1.33;;
40533;SDS011;26233;51.894;10.192;2022-12-18T07:14:26;1.90;;;1.80;;
40533;SDS011;26233;51.894;10.192;2022-12-18T07:16:53;2.00;;;1.80;;
40533;SDS011;26233;51.894;10.192;2022-12-18T07:19:20;1.70;;;1.60;;
40533;SDS011;26233;51.894;10.192;2022-12-18T07:21:50;1.73;;;1.63;;
40533;SDS011;26233;51.894;10.192;2022-12-18T07:24:19;1.83;;;1.60;;
40533;SDS011;26233;51.894;10.192;2022-12-18T07:26:46;1.57;;;1.47;;
40533;SDS011;26233;51.894;10.192;2022-12-18T07:29:13;1.90;;;1.80;;
40533;SDS011;26233;51.894;10.192;2022-12-18T07:31:40;1.70;;;1.60;;
40533;SDS011;26233;51.894;10.192;2022-12-18T07:34:09;1.60;;;1.50;;
40533;SDS011;26233;51.894;10.192;2022-12-18T07:36:37;2.57;;;2.00;;
40533;SDS011;26233;51.894;10.192;2022-12-18T07:39:04;2.57;;;2.00;;
40533;SDS011;26233;51.894;10.192;2022-12-18T07:41:33;2.27;;;2.03;;
40533;SDS011;26233;51.894;10.192;2022-12-18T07:44:00;2.40;;;2.17;;
40533;SDS011;26233;51.894;10.192;2022-12-18T07:46:27;3.10;;;2.30;;
40533;SDS011;26233;51.894;10.192;2022-12-18T07:48:54;3.73;;;2.23;;
40533;SDS011;26233;51.894;10.192;2022-12-18T07:51:21;2.93;;;2.40;;
40533;SDS011;26233;51.894;10.192;2022-12-18T07:53:48;3.73;;;2.90;;
40533;SDS011;26233;51.894;10.192;2022-12-18T07:56:15;3.60;;;3.27;;
40533;SDS011;26233;51.894;10.192;2022-12-18T07:58:43;3.80;;;3.33;;
40533;SDS011;26233;51.894;10.192;2022-12-18T08:01:11;3.87;;;3.20;;
40533;SDS011;26233;51.894;10.192;2022-12-18T08:03:39;3.13;;;2.80;;
40533;SDS011;26233;51.894;10.192;2022-12-18T08:06:07;3.53;;;3.23;;
40533;SDS011;26233;51.894;10.192;2022-12-18T08:08:36;3.70;;;3.20;;
40533;SDS011;26233;51.894;10.192;2022-12-18T08:11:07;3.50;;;3.20;;
40533;SDS011;26233;51.894;10.192;2022-12-18T08:13:34;4.47;;;3.47;;
40533;SDS011;26233;51.894;10.192;2022-12-18T08:16:02;4.20;;;2.90;;
40533;SDS011;26233;51.894;10.192;2022-12-18T08:18:35;3.57;;;2.80;;
40533;SDS011;26233;51.894;10.192;2022-12-18T08:21:07;2.93;;;2.40;;
40533;SDS011;26233;51.894;10.192;2022-12-18T08:23:38;3.33;;;2.63;;
40533;SDS011;26233;51.894;10.192;2022-12-18T08:26:05;2.63;;;2.43;;
40533;SDS011;26233;51.894;10.192;2022-12-18T08:28:32;2.80;;;2.50;;
40533;SDS011;26233;51.894;10.192;2022-12-18T08:31:04;2.77;;;2.57;;
40533;SDS011;26233;51.894;10.192;2022-12-18T08:33:33;2.93;;;2.60;;
40533;SDS011;26233;51.894;10.192;2022-12-18T08:36:05;3.03;;;2.80;;
40533;SDS011;26233;51.894;10.192;2022-12-18T08:38:32;3.10;;;2.80;;
40533;SDS011;26233;51.894;10.192;2022-12-18T08:41:00;3.40;;;2.70;;
40533;SDS011;26233;51.894;10.192;2022-12-18T08:43:29;2.73;;;2.53;;
40533;SDS011;26233;51.894;10.192;2022-12-18T08:46:16;3.00;;;2.40;;
40533;SDS011;26233;51.894;10.192;2022-12-18T08:48:43;2.70;;;2.50;;
40533;SDS011;26233;51.894;10.192;2022-12-18T08:51:10;3.10;;;2.80;;
40533;SDS011;26233;51.894;10.192;2022-12-18T08:53:37;3.00;;;2.70;;
40533;SDS011;26233;51.894;10.192;2022-12-18T08:56:05;3.33;;;2.73;;
40533;SDS011;26233;51.894;10.192;2022-12-18T08:58:33;4.07;;;3.63;;
40533;SDS011;26233;51.894;10.192;2022-12-18T09:01:00;4.00;;;3.60;;
40533;SDS011;26233;51.894;10.192;2022-12-18T09:03:29;5.47;;;4.00;;
40533;SDS011;26233;51.894;10.192;2022-12-18T09:05:56;4.60;;;3.70;;
40533;SDS011;26233;51.894;10.192;2022-12-18T09:08:24;4.37;;;3.67;;
40533;SDS011;26233;51.894;10.192;2022-12-18T09:10:54;5.27;;;4.10;;
40533;SDS011;26233;51.894;10.192;2022-12-18T09:13:21;4.70;;;4.30;;
40533;SDS011;26233;51.894;10.192;2022-12-18T09:15:49;4.57;;;3.87;;
40533;SDS011;26233;51.894;10.192;2022-12-18T09:18:19;4.30;;;3.90;;
40533;SDS011;26233;51.894;10.192;2022-12-18T09:20:49;3.93;;;3.53;;
40533;SDS011;26233;51.894;10.192;2022-12-18T09:23:17;4.27;;;3.87;;
40533;SDS011;26233;51.894;10.192;2022-12-18T09:25:45;4.63;;;4.00;;
40533;SDS011;26233;51.894;10.192;2022-12-18T09:28:12;4.27;;;3.87;;
40533;SDS011;26233;51.894;10.192;2022-12-18T09:30:41;4.27;;;3.87;;
40533;SDS011;26233;51.894;10.192;2022-12-18T09:33:11;3.97;;;3.57;;
40533;SDS011;26233;51.894;10.192;2022-12-18T09:35:39;3.50;;;3.20;;
40533;SDS011;26233;51.894;10.192;2022-12-18T09:38:09;3.00;;;2.80;;
40533;SDS011;26233;51.894;10.192;2022-12-18T09:40:41;3.20;;;2.90;;
40533;SDS011;26233;51.894;10.192;2022-12-18T09:43:13;3.00;;;2.70;;
40533;SDS011;26233;51.894;10.192;2022-12-18T09:45:45;3.63;;;3.23;;
40533;SDS011;26233;51.894;10.192;2022-12-18T09:48:18;4.20;;;3.77;;
40533;SDS011;26233;51.894;10.192;2022-12-18T09:50:50;3.90;;;3.60;;
40533;SDS011;26233;51.894;10.192;2022-12-18T09:53:22;3.93;;;3.63;;
40533;SDS011;26233;51.894;10.192;2022-12-18T09:55:57;4.17;;;3.77;;
40533;SDS011;26233;51.894;10.192;2022-12-18T09:58:24;4.73;;;3.50;;
40533;SDS011;26233;51.894;10.192;2022-12-18T10:01:00;4.40;;;4.00;;
40533;SDS011;26233;51.894;10.192;2022-12-18T10:03:27;4.30;;;3.90;;
40533;SDS011;26233;51.894;10.192;2022-12-18T10:05:56;4.47;;;4.07;;
40533;SDS011;26233;51.894;10.192;2022-12-18T10:08:35;4.47;;;4.07;;
40533;SDS011;26233;51.894;10.192;2022-12-18T10:11:20;3.87;;;3.57;;
40533;SDS011;26233;51.894;10.192;2022-12-18T10:13:57;4.07;;;3.67;;
40533;SDS011;26233;51.894;10.192;2022-12-18T10:16:33;3.97;;;3.67;;
40533;SDS011;26233;51.894;10.192;2022-12-18T10:19:11;3.50;;;3.20;;
40533;SDS011;26233;51.894;10.192;2022-12-18T10:21:57;3.87;;;3.17;;
40533;SDS011;26233;51.894;10.192;2022-12-18T10:24:33;3.40;;;3.10;;
40533;SDS011;26233;51.894;10.192;2022-12-18T10:27:11;3.23;;;2.97;;
40533;SDS011;26233;51.894;10.192;2022-12-18T10:29:41;2.70;;;2.50;;
40533;SDS011;26233;51.894;10.192;2022-12-18T10:32:13;2.90;;;2.60;;
40533;SDS011;26233;51.894;10.192;2022-12-18T10:34:46;2.50;;;2.30;;
40533;SDS011;26233;51.894;10.192;2022-12-18T10:37:16;2.83;;;2.50;;
40533;SDS011;26233;51.894;10.192;2022-12-18T10:39:47;2.73;;;2.33;;
40533;SDS011;26233;51.894;10.192;2022-12-18T10:42:35;2.50;;;2.30;;
40533;SDS011;26233;51.894;10.192;2022-12-18T10:45:03;2.40;;;2.20;;
40533;SDS011;26233;51.894;10.192;2022-12-18T10:47:35;2.70;;;2.50;;
40533;SDS011;26233;51.894;10.192;2022-12-18T10:50:10;2.70;;;2.50;;
40533;SDS011;26233;51.894;10.192;2022-12-18T10:52:54;3.83;;;2.63;;
40533;SDS011;26233;51.894;10.192;2022-12-18T10:55:26;3.00;;;2.70;;
40533;SDS011;26233;51.894;10.192;2022-12-18T10:58:08;3.67;;;2.97;;
40533;SDS011;26233;51.894;10.192;2022-12-18T11:00:45;3.27;;;2.73;;
40533;SDS011;26233;51.894;10.192;2022-12-18T11:03:33;3.50;;;3.10;;
40533;SDS011;26233;51.894;10.192;2022-12-18T11:06:04;3.57;;;3.23;;
40533;SDS011;26233;51.894;10.192;2022-12-18T11:08:33;4.00;;;3.37;;
40533;SDS011;26233;51.894;10.192;2022-12-18T11:11:02;4.37;;;3.43;;
40533;SDS011;26233;51.894;10.192;2022-12-18T11:13:31;3.73;;;3.33;;
40533;SDS011;26233;51.894;10.192;2022-12-18T11:15:58;3.67;;;3.37;;
40533;SDS011;26233;51.894;10.192;2022-12-18T11:18:27;3.97;;;3.63;;
40533;SDS011;26233;51.894;10.192;2022-12-18T11:20:56;4.43;;;3.90;;
40533;SDS011;26233;51.894;10.192;2022-12-18T11:23:26;3.80;;;3.40;;
40533;SDS011;26233;51.894;10.192;2022-12-18T11:25:55;3.50;;;3.20;;
40533;SDS011;26233;51.894;10.192;2022-12-18T11:28:33;3.73;;;3.20;;
40533;SDS011;26233;51.894;10.192;2022-12-18T11:31:12;4.03;;;3.30;;
40533;SDS011;26233;51.894;10.192;2022-12-18T11:33:54;3.83;;;3.50;;
40533;SDS011;26233;51.894;10.192;2022-12-18T11:36:28;3.23;;;2.83;;
40533;SDS011;26233;51.894;10.192;2022-12-18T11:39:02;4.07;;;3.30;;
40533;SDS011;26233;51.894;10.192;2022-12-18T11:41:40;3.60;;;3.30;;
40533;SDS011;26233;51.894;10.192;2022-12-18T11:44:35;3.50;;;3.20;;
40533;SDS011;26233;51.894;10.192;2022-12-18T11:47:11;3.73;;;3.43;;
40533;SDS011;26233;51.894;10.192;2022-12-18T11:49:49;4.93;;;3.87;;
40533;SDS011;26233;51.894;10.192;2022-12-18T11:52:17;4.07;;;3.57;;
40533;SDS011;26233;51.894;10.192;2022-12-18T11:54:50;4.53;;;3.97;;
40533;SDS011;26233;51.894;10.192;2022-12-18T11:57:19;4.50;;;4.13;;
40533;SDS011;26233;51.894;10.192;2022-12-18T12:00:03;4.03;;;3.63;;
40533;SDS011;26233;51.894;10.192;2022-12-18T12:02:47;3.97;;;3.57;;
40533;SDS011;26233;51.894;10.192;2022-12-18T12:05:43;4.40;;;3.90;;
40533;SDS011;26233;51.894;10.192;2022-12-18T12:08:23;4.20;;;3.80;;
40533;SDS011;26233;51.894;10.192;2022-12-18T12:11:02;4.20;;;3.80;;
40533;SDS011;26233;51.894;10.192;2022-12-18T12:13:44;4.20;;;3.80;;
40533;SDS011;26233;51.894;10.192;2022-12-18T12:16:39;4.33;;;3.80;;
40533;SDS011;26233;51.894;10.192;2022-12-18T12:19:20;3.77;;;3.47;;
40533;SDS011;26233;51.894;10.192;2022-12-18T12:22:00;4.30;;;3.90;;
40533;SDS011;26233;51.894;10.192;2022-12-18T12:24:39;4.90;;;4.40;;
40533;SDS011;26233;51.894;10.192;2022-12-18T12:27:19;4.37;;;3.97;;
40533;SDS011;26233;51.894;10.192;2022-12-18T12:29:58;4.40;;;4.00;;
40533;SDS011;26233;51.894;10.192;2022-12-18T12:32:52;4.00;;;3.67;;
40533;SDS011;26233;51.894;10.192;2022-12-18T12:35:33;4.30;;;3.90;;
40533;SDS011;26233;51.894;10.192;2022-12-18T12:38:17;4.80;;;4.30;;
40533;SDS011;26233;51.894;10.192;2022-12-18T12:40:49;4.33;;;3.93;;
40533;SDS011;26233;51.894;10.192;2022-12-18T12:43:22;4.43;;;4.03;;
40533;SDS011;26233;51.894;10.192;2022-12-18T12:45:57;3.93;;;3.57;;
40533;SDS011;26233;51.894;10.192;2022-12-18T12:48:33;5.40;;;4.90;;
40533;SDS011;26233;51.894;10.192;2022-12-18T12:51:08;5.73;;;4.87;;
40533;SDS011;26233;51.894;10.192;2022-12-18T12:53:42;5.37;;;4.87;;
40533;SDS011;26233;51.894;10.192;2022-12-18T12:56:11;4.93;;;4.37;;
40533;SDS011;26233;51.894;10.192;2022-12-18T12:58:44;5.13;;;4.50;;
40533;SDS011;26233;51.894;10.192;2022-12-18T13:01:26;5.97;;;4.70;;
40533;SDS011;26233;51.894;10.192;2022-12-18T13:04:07;5.47;;;4.57;;
40533;SDS011;26233;51.894;10.192;2022-12-18T13:06:47;5.17;;;4.40;;
40533;SDS011;26233;51.894;10.192;2022-12-18T13:09:22;4.67;;;4.23;;
40533;SDS011;26233;51.894;10.192;2022-12-18T13:11:49;4.23;;;3.83;;
40533;SDS011;26233;51.894;10.192;2022-12-18T13:14:34;4.30;;;3.93;;
40533;SDS011;26233;51.894;10.192;2022-12-18T13:17:16;4.80;;;4.37;;
40533;SDS011;26233;51.894;10.192;2022-12-18T13:20:11;4.67;;;4.20;;
40533;SDS011;26233;51.894;10.192;2022-12-18T13:22:41;4.50;;;4.10;;
40533;SDS011;26233;51.894;10.192;2022-12-18T13:28:09;6.00;;;4.73;;
40533;SDS011;26233;51.894;10.192;2022-12-18T13:30:45;4.77;;;4.20;;
40533;SDS011;26233;51.894;10.192;2022-12-18T13:33:37;5.13;;;4.40;;
40533;SDS011;26233;51.894;10.192;2022-12-18T13:36:25;5.37;;;4.83;;
40533;SDS011;26233;51.894;10.192;2022-12-18T13:39:20;5.60;;;4.80;;
40533;SDS011;26233;51.894;10.192;2022-12-18T13:41:52;4.87;;;4.37;;
40533;SDS011;26233;51.894;10.192;2022-12-18T13:44:31;4.37;;;3.97;;
40533;SDS011;26233;51.894;10.192;2022-12-18T13:46:59;4.20;;;3.80;;
40533;SDS011;26233;51.894;10.192;2022-12-18T13:49:31;4.50;;;4.10;;
40533;SDS011;26233;51.894;10.192;2022-12-18T13:52:15;4.70;;;3.80;;
40533;SDS011;26233;51.894;10.192;2022-12-18T13:54:47;4.80;;;4.13;;
40533;SDS011;26233;51.894;10.192;2022-12-18T13:57:27;3.77;;;3.47;;
40533;SDS011;26233;51.894;10.192;2022-12-18T13:59:57;4.13;;;3.67;;
40533;SDS011;26233;51.894;10.192;2022-12-18T14:02:29;4.53;;;3.47;;
40533;SDS011;26233;51.894;10.192;2022-12-18T14:04:59;4.23;;;3.83;;
40533;SDS011;26233;51.894;10.192;2022-12-18T14:07:28;7.57;;;6.23;;
40533;SDS011;26233;51.894;10.192;2022-12-18T14:09:57;8.70;;;7.20;;
40533;SDS011;26233;51.894;10.192;2022-12-18T14:12:26;9.07;;;6.03;;
40533;SDS011;26233;51.894;10.192;2022-12-18T14:15:22;6.27;;;5.30;;
40533;SDS011;26233;51.894;10.192;2022-12-18T14:17:59;6.40;;;5.13;;
40533;SDS011;26233;51.894;10.192;2022-12-18T14:20:30;5.03;;;4.57;;
40533;SDS011;26233;51.894;10.192;2022-12-18T14:23:00;5.40;;;4.60;;
40533;SDS011;26233;51.894;10.192;2022-12-18T14:25:28;5.10;;;4.60;;
40533;SDS011;26233;51.894;10.192;2022-12-18T14:28:02;4.93;;;4.30;;
40533;SDS011;26233;51.894;10.192;2022-12-18T14:30:39;4.57;;;4.13;;
40533;SDS011;26233;51.894;10.192;2022-12-18T14:33:09;4.57;;;4.17;;
40533;SDS011;26233;51.894;10.192;2022-12-18T14:35:38;4.63;;;4.13;;
40533;SDS011;26233;51.894;10.192;2022-12-18T14:38:11;4.57;;;4.10;;
40533;SDS011;26233;51.894;10.192;2022-12-18T14:40:52;4.30;;;3.90;;
40533;SDS011;26233;51.894;10.192;2022-12-18T14:43:23;4.03;;;3.73;;
40533;SDS011;26233;51.894;10.192;2022-12-18T14:45:54;4.40;;;3.73;;
40533;SDS011;26233;51.894;10.192;2022-12-18T14:48:25;5.17;;;3.70;;
40533;SDS011;26233;51.894;10.192;2022-12-18T14:51:03;4.50;;;4.10;;
40533;SDS011;26233;51.894;10.192;2022-12-18T14:53:35;5.70;;;4.53;;
40533;SDS011;26233;51.894;10.192;2022-12-18T14:56:15;4.50;;;4.07;;
40533;SDS011;26233;51.894;10.192;2022-12-18T14:58:45;4.20;;;3.80;;
40533;SDS011;26233;51.894;10.192;2022-12-18T15:01:18;4.10;;;3.70;;
40533;SDS011;26233;51.894;10.192;2022-12-18T15:03:49;4.63;;;4.00;;